createdAt,value
2023-04-15T00:01:41.957Z,1.42
2023-04-15T00:04:09.255Z,0.77
2023-04-15T00:06:37.376Z,0.85
2023-04-15T00:09:04.071Z,1.77
2023-04-15T00:11:30.993Z,0.60
2023-04-15T00:13:58.487Z,1.17
2023-04-15T00:16:25.246Z,0.80
2023-04-15T00:18:52.031Z,1.00
2023-04-15T00:21:19.889Z,1.50
2023-04-15T00:23:52.372Z,1.30
2023-04-15T00:26:20.799Z,0.60
2023-04-15T00:28:50.196Z,1.65
2023-04-15T00:31:17.176Z,0.80
2023-04-15T00:33:44.991Z,0.98
2023-04-15T00:36:11.727Z,1.30
2023-04-15T00:38:38.589Z,0.77
2023-04-15T00:41:05.659Z,1.00
2023-04-15T00:43:32.427Z,0.60
2023-04-15T00:46:00.897Z,0.82
2023-04-15T00:48:28.266Z,1.05
2023-04-15T00:50:55.082Z,0.60
2023-04-15T00:53:21.913Z,0.73
2023-04-15T00:55:49.263Z,0.77
2023-04-15T00:58:16.664Z,1.27
2023-04-15T01:00:43.911Z,0.70
2023-04-15T01:03:11.727Z,0.80
2023-04-15T01:05:39.216Z,0.95
2023-04-15T01:08:06.689Z,1.42
2023-04-15T01:10:33.768Z,1.47
2023-04-15T01:13:00.711Z,1.65
2023-04-15T01:15:27.692Z,1.43
2023-04-15T01:17:54.621Z,0.77
2023-04-15T01:20:22.139Z,1.20
2023-04-15T01:22:49.551Z,0.80
2023-04-15T01:25:20.250Z,0.93
2023-04-15T01:27:47.573Z,1.73
2023-04-15T01:30:14.476Z,1.17
2023-04-15T01:32:41.703Z,1.00
2023-04-15T01:35:09.004Z,0.67
2023-04-15T01:37:36.712Z,0.60
2023-04-15T01:40:03.509Z,0.93
2023-04-15T01:42:30.461Z,0.65
2023-04-15T01:44:57.208Z,1.48
2023-04-15T01:47:24.065Z,0.70
2023-04-15T01:49:51.871Z,1.10
2023-04-15T01:52:18.758Z,1.90
2023-04-15T01:54:45.713Z,0.80
2023-04-15T01:57:12.881Z,0.68
2023-04-15T01:59:39.628Z,0.80
2023-04-15T02:02:06.543Z,0.90
2023-04-15T02:04:34.121Z,1.30
2023-04-15T02:07:00.985Z,1.02
2023-04-15T02:09:27.928Z,1.33
2023-04-15T02:11:54.692Z,0.63
2023-04-15T02:14:21.532Z,1.53
2023-04-15T02:16:48.347Z,0.90
2023-04-15T02:19:16.302Z,1.33
2023-04-15T02:21:43.116Z,0.70
2023-04-15T02:24:10.110Z,1.10
2023-04-15T02:26:36.901Z,0.75
2023-04-15T02:29:04.015Z,0.70
2023-04-15T02:31:33.903Z,1.90
2023-04-15T02:34:02.913Z,1.33
2023-04-15T02:36:31.629Z,1.65
2023-04-15T02:38:58.803Z,0.80
2023-04-15T02:41:28.371Z,0.73
2023-04-15T02:43:55.473Z,1.35
2023-04-15T02:46:23.026Z,0.60
2023-04-15T02:48:50.464Z,1.23
2023-04-15T02:51:20.599Z,0.90
2023-04-15T02:53:48.516Z,1.17
2023-04-15T02:56:17.027Z,1.52
2023-04-15T02:58:45.032Z,1.63
2023-04-15T03:01:12.135Z,0.80
2023-04-15T03:03:40.033Z,0.95
2023-04-15T03:06:06.952Z,0.80
2023-04-15T03:08:34.300Z,0.85
2023-04-15T03:11:02.612Z,1.20
2023-04-15T03:13:29.452Z,1.50
2023-04-15T03:15:58.039Z,1.47
2023-04-15T03:18:24.912Z,0.68
2023-04-15T03:20:51.721Z,0.68
2023-04-15T03:23:18.926Z,1.00
2023-04-15T03:25:46.925Z,0.90
2023-04-15T03:28:14.834Z,0.77
2023-04-15T03:30:41.879Z,1.05
2023-04-15T03:33:08.787Z,0.80
2023-04-15T03:35:36.447Z,0.95
2023-04-15T03:38:03.161Z,0.60
2023-04-15T03:40:29.987Z,1.08
2023-04-15T03:42:56.817Z,1.15
2023-04-15T03:45:23.556Z,0.70
2023-04-15T03:47:50.546Z,1.13
2023-04-15T03:50:17.494Z,0.98
2023-04-15T03:52:44.943Z,1.25
2023-04-15T03:55:11.764Z,0.63
2023-04-15T03:57:39.259Z,0.70
2023-04-15T04:00:07.257Z,1.30
2023-04-15T04:02:39.126Z,1.23
2023-04-15T04:05:06.262Z,0.73
2023-04-15T04:07:33.010Z,0.80
2023-04-15T04:10:01.186Z,0.95
2023-04-15T04:12:27.922Z,0.70
2023-04-15T04:14:55.663Z,1.50
2023-04-15T04:17:22.402Z,0.73
2023-04-15T04:19:49.530Z,1.70
2023-04-15T04:22:16.321Z,0.75
2023-04-15T04:24:43.039Z,0.85
2023-04-15T04:27:09.787Z,0.77
2023-04-15T04:29:36.796Z,0.93
2023-04-15T04:32:03.658Z,1.33
2023-04-15T04:34:30.537Z,0.70
2023-04-15T04:36:57.333Z,1.45
2023-04-15T04:39:23.997Z,0.90
2023-04-15T04:41:52.366Z,1.20
2023-04-15T04:44:19.157Z,0.60
2023-04-15T04:46:45.968Z,0.73
2023-04-15T04:49:12.702Z,1.30
2023-04-15T04:51:39.559Z,1.40
2023-04-15T04:54:06.347Z,0.70
2023-04-15T04:56:34.568Z,1.05
2023-04-15T04:59:01.685Z,0.80
2023-04-15T05:01:28.652Z,0.40
2023-04-15T05:03:55.662Z,1.00
2023-04-15T05:06:22.429Z,0.65
2023-04-15T05:08:49.180Z,0.90
2023-04-15T05:11:16.090Z,0.80
2023-04-15T05:13:42.953Z,0.60
2023-04-15T05:16:09.765Z,0.90
2023-04-15T05:18:36.724Z,0.50
2023-04-15T05:21:03.709Z,1.00
2023-04-15T05:23:30.612Z,0.50
2023-04-15T05:25:57.293Z,0.70
2023-04-15T05:28:24.012Z,0.80
2023-04-15T05:30:51.027Z,0.60
2023-04-15T05:33:17.750Z,0.70
2023-04-15T05:35:44.426Z,0.80
2023-04-15T05:38:11.212Z,0.68
2023-04-15T05:40:38.005Z,0.60
2023-04-15T05:43:05.876Z,0.60
2023-04-15T05:45:32.651Z,0.80
2023-04-15T05:47:59.413Z,0.90
2023-04-15T05:50:26.349Z,0.68
2023-04-15T05:52:53.093Z,0.85
2023-04-15T05:55:19.899Z,0.65
2023-04-15T05:57:46.865Z,1.00
2023-04-15T06:00:14.408Z,0.93
2023-04-15T06:02:41.749Z,0.93
2023-04-15T06:05:09.875Z,0.50
2023-04-15T06:07:37.646Z,0.98
2023-04-15T06:10:05.936Z,2.63
2023-04-15T06:12:32.947Z,0.65
2023-04-15T06:15:00.366Z,0.90
2023-04-15T06:17:27.563Z,0.82
2023-04-15T06:19:55.749Z,0.80
2023-04-15T06:22:24.343Z,1.40
2023-04-15T06:24:51.455Z,1.80
2023-04-15T06:27:18.600Z,1.33
2023-04-15T06:29:45.494Z,0.80
2023-04-15T06:32:13.057Z,1.40
2023-04-15T06:34:39.846Z,1.63
2023-04-15T06:37:06.611Z,1.30
2023-04-15T06:39:33.455Z,1.60
2023-04-15T06:42:01.349Z,1.58
2023-04-15T06:44:28.045Z,2.63
2023-04-15T06:46:54.799Z,1.38
2023-04-15T06:49:21.733Z,1.35
2023-04-15T06:51:48.547Z,2.28
2023-04-15T06:54:15.374Z,2.08
2023-04-15T06:56:42.729Z,1.73
2023-04-15T06:59:09.730Z,1.60
2023-04-15T07:01:36.763Z,1.07
2023-04-15T07:04:03.618Z,2.30
2023-04-15T07:06:30.426Z,1.20
2023-04-15T07:08:57.400Z,2.08
2023-04-15T07:11:25.862Z,2.13
2023-04-15T07:13:52.696Z,1.67
2023-04-15T07:16:19.489Z,3.13
2023-04-15T07:18:46.280Z,5.30
2023-04-15T07:21:13.023Z,3.25
2023-04-15T07:23:40.165Z,3.53
2023-04-15T07:26:07.257Z,1.92
2023-04-15T07:28:33.942Z,2.13
2023-04-15T07:31:00.760Z,3.03
2023-04-15T07:33:27.636Z,1.92
2023-04-15T07:35:54.365Z,3.30
2023-04-15T07:38:21.593Z,2.05
2023-04-15T07:40:48.452Z,8.50
2023-04-15T07:43:15.569Z,2.65
2023-04-15T07:45:42.364Z,1.38
2023-04-15T07:48:09.108Z,1.67
2023-04-15T07:50:35.932Z,1.88
2023-04-15T07:53:03.781Z,1.70
2023-04-15T07:55:30.684Z,2.67
2023-04-15T07:57:57.542Z,2.53
2023-04-15T08:00:24.625Z,3.08
2023-04-15T08:02:53.683Z,2.47
2023-04-15T08:05:20.885Z,2.25
2023-04-15T08:07:47.739Z,2.20
2023-04-15T08:10:14.970Z,2.42
2023-04-15T08:12:42.838Z,2.00
2023-04-15T08:15:09.946Z,2.03
2023-04-15T08:17:36.833Z,2.13
2023-04-15T08:20:05.795Z,1.33
2023-04-15T08:22:32.747Z,2.38
2023-04-15T08:24:59.563Z,2.85
2023-04-15T08:27:26.335Z,1.27
2023-04-15T08:29:53.134Z,2.08
2023-04-15T08:32:20.214Z,1.20
2023-04-15T08:34:47.086Z,2.00
2023-04-15T08:37:14.146Z,2.47
2023-04-15T08:39:40.832Z,2.45
2023-04-15T08:42:12.574Z,1.63
2023-04-15T08:44:42.561Z,1.70
2023-04-15T08:47:13.039Z,2.28
2023-04-15T08:49:44.010Z,2.05
2023-04-15T08:52:11.119Z,1.70
2023-04-15T08:54:38.715Z,1.50
2023-04-15T08:57:06.641Z,2.00
2023-04-15T08:59:33.407Z,2.50
2023-04-15T09:02:01.148Z,1.85
2023-04-15T09:04:28.516Z,1.83
2023-04-15T09:06:55.300Z,1.00
2023-04-15T09:09:22.687Z,2.33
2023-04-15T09:11:51.342Z,2.03
2023-04-15T09:14:18.241Z,1.92
2023-04-15T09:17:04.406Z,1.60
2023-04-15T09:19:33.527Z,1.50
2023-04-15T09:22:00.599Z,1.00
2023-04-15T09:24:38.860Z,1.88
2023-04-15T09:27:06.405Z,2.05
2023-04-15T09:29:33.295Z,2.40
2023-04-15T09:32:16.358Z,1.48
2023-04-15T09:34:43.570Z,1.48
2023-04-15T09:37:11.202Z,1.67
2023-04-15T09:39:52.516Z,2.22
2023-04-15T09:42:28.764Z,2.20
2023-04-15T09:44:55.969Z,1.70
2023-04-15T09:47:30.338Z,2.67
2023-04-15T09:50:01.245Z,2.20
2023-04-15T09:52:29.079Z,1.90
2023-04-15T09:54:58.438Z,1.75
2023-04-15T09:57:25.278Z,1.30
2023-04-15T09:59:52.249Z,1.60
2023-04-15T10:02:21.312Z,2.10
2023-04-15T10:04:49.456Z,2.00
2023-04-15T10:07:20.613Z,2.10
2023-04-15T10:09:49.099Z,1.70
2023-04-15T10:12:19.664Z,2.70
2023-04-15T10:14:53.364Z,1.33
2023-04-15T10:17:22.797Z,1.80
2023-04-15T10:19:52.947Z,1.90
2023-04-15T10:22:19.943Z,2.10
2023-04-15T10:24:48.766Z,3.25
2023-04-15T10:27:18.020Z,3.43
2023-04-15T10:29:45.468Z,3.58
2023-04-15T10:32:13.631Z,2.70
2023-04-15T10:34:40.898Z,2.60
2023-04-15T10:37:11.002Z,2.15
2023-04-15T10:39:38.072Z,2.35
2023-04-15T10:42:21.607Z,3.50
2023-04-15T10:44:56.466Z,2.35
2023-04-15T10:47:23.391Z,3.20
2023-04-15T10:50:01.709Z,3.30
2023-04-15T10:52:29.413Z,2.93
2023-04-15T10:55:17.906Z,2.53
2023-04-15T10:57:44.885Z,2.10
2023-04-15T11:00:16.798Z,3.00
2023-04-15T11:03:07.381Z,3.13
2023-04-15T11:05:54.126Z,3.50
2023-04-15T11:08:40.907Z,2.75
2023-04-15T11:11:08.453Z,2.92
2023-04-15T11:13:36.072Z,2.50
2023-04-15T11:16:03.727Z,2.75
2023-04-15T11:18:31.770Z,3.10
2023-04-15T11:21:02.061Z,3.55
2023-04-15T11:23:31.490Z,1.70
2023-04-15T11:25:59.870Z,2.07
2023-04-15T11:28:28.776Z,2.10
2023-04-15T11:30:56.267Z,3.08
2023-04-15T11:33:24.228Z,2.95
2023-04-15T11:35:54.056Z,3.17
2023-04-15T11:38:22.354Z,6.68
2023-04-15T11:40:51.249Z,5.67
2023-04-15T11:43:21.067Z,6.60
2023-04-15T11:45:57.810Z,4.50
2023-04-15T11:48:26.997Z,5.17
2023-04-15T11:50:57.971Z,4.65
2023-04-15T11:53:46.050Z,4.70
2023-04-15T11:56:24.032Z,6.30
2023-04-15T11:59:02.195Z,6.93
2023-04-15T12:01:47.696Z,5.72
2023-04-15T12:04:17.685Z,5.50
2023-04-15T12:06:45.588Z,4.85
2023-04-15T12:09:13.800Z,5.10
2023-04-15T12:11:46.042Z,5.07
2023-04-15T12:14:26.693Z,3.85
2023-04-15T12:17:05.237Z,5.37
2023-04-15T12:19:36.578Z,5.20
2023-04-15T12:22:06.539Z,3.97
2023-04-15T12:24:35.018Z,4.00
2023-04-15T12:27:04.030Z,3.72
2023-04-15T12:29:31.860Z,4.13
2023-04-15T12:32:05.877Z,5.18
2023-04-15T12:34:40.460Z,3.97
2023-04-15T12:37:09.644Z,4.22
2023-04-15T12:39:42.327Z,3.20
2023-04-15T12:42:09.818Z,3.78
2023-04-15T12:44:38.221Z,3.53
2023-04-15T12:47:07.748Z,4.53
2023-04-15T12:49:34.597Z,4.90
2023-04-15T12:52:02.402Z,3.33
2023-04-15T12:54:30.488Z,3.08
2023-04-15T12:56:57.912Z,2.95
2023-04-15T12:59:25.148Z,4.03
2023-04-15T13:01:54.276Z,3.83
2023-04-15T13:04:22.163Z,2.50
2023-04-15T13:06:49.557Z,2.50
2023-04-15T13:09:16.452Z,3.30
2023-04-15T13:11:43.725Z,3.58
2023-04-15T13:14:13.524Z,3.85
2023-04-15T13:16:40.631Z,2.80
2023-04-15T13:19:07.857Z,2.20
2023-04-15T13:21:35.939Z,3.30
2023-04-15T13:24:03.714Z,2.65
2023-04-15T13:26:31.574Z,3.58
2023-04-15T13:28:58.383Z,1.80
2023-04-15T13:31:25.469Z,2.67
2023-04-15T13:33:52.299Z,2.60
2023-04-15T13:36:19.224Z,2.22
2023-04-15T13:38:46.757Z,2.80
2023-04-15T13:41:14.235Z,2.47
2023-04-15T13:43:41.519Z,2.63
2023-04-15T13:46:08.393Z,2.67
2023-04-15T13:48:35.453Z,3.08
2023-04-15T13:51:02.211Z,3.13
2023-04-15T13:53:39.077Z,3.72
2023-04-15T13:56:10.515Z,1.65
2023-04-15T13:58:38.286Z,2.17
2023-04-15T14:01:06.825Z,3.03
2023-04-15T14:03:38.003Z,2.47
2023-04-15T14:06:06.165Z,4.00
2023-04-15T14:08:33.372Z,2.70
2023-04-15T14:11:00.484Z,2.30
2023-04-15T14:13:27.226Z,2.33
2023-04-15T14:15:53.997Z,2.07
2023-04-15T14:18:20.795Z,1.63
2023-04-15T14:20:47.641Z,2.20
2023-04-15T14:23:14.394Z,2.10
2023-04-15T14:25:41.233Z,2.30
2023-04-15T14:28:08.074Z,2.20
2023-04-15T14:30:34.967Z,1.90
2023-04-15T14:33:01.965Z,1.67
2023-04-15T14:35:29.001Z,4.63
2023-04-15T14:37:55.857Z,8.75
2023-04-15T14:40:22.922Z,7.70
2023-04-15T14:42:49.917Z,11.02
2023-04-15T14:45:17.526Z,10.40
2023-04-15T14:47:45.437Z,10.60
2023-04-15T14:50:12.274Z,6.13
2023-04-15T14:52:39.103Z,13.40
2023-04-15T14:55:10.772Z,8.30
2023-04-15T14:57:38.788Z,7.07
2023-04-15T15:00:07.245Z,8.73
2023-04-15T15:02:39.275Z,8.32
2023-04-15T15:05:08.013Z,8.05
2023-04-15T15:07:36.955Z,12.60
2023-04-15T15:10:04.234Z,3.60
2023-04-15T15:12:31.032Z,8.55
2023-04-15T15:14:57.794Z,5.87
2023-04-15T15:17:24.594Z,11.20
2023-04-15T15:19:51.485Z,6.30
2023-04-15T15:22:20.819Z,4.63
2023-04-15T15:24:48.114Z,6.68
2023-04-15T15:27:14.907Z,6.60
2023-04-15T15:29:41.867Z,3.97
2023-04-15T15:32:08.723Z,3.53
2023-04-15T15:34:35.580Z,7.78
2023-04-15T15:37:02.341Z,6.53
2023-04-15T15:39:29.106Z,4.82
2023-04-15T15:41:56.967Z,5.22
2023-04-15T15:44:23.689Z,3.27
2023-04-15T15:46:51.131Z,4.80
2023-04-15T15:49:18.190Z,5.32
2023-04-15T15:51:45.802Z,6.00
2023-04-15T15:54:12.976Z,3.83
2023-04-15T15:56:39.819Z,5.43
2023-04-15T15:59:06.790Z,6.17
2023-04-15T16:01:34.013Z,4.40
2023-04-15T16:04:01.157Z,4.30
2023-04-15T16:06:28.309Z,5.07
2023-04-15T16:08:55.572Z,3.50
2023-04-15T16:11:23.284Z,4.63
2023-04-15T16:13:49.987Z,2.22
2023-04-15T16:16:16.865Z,2.70
2023-04-15T16:18:43.565Z,3.38
2023-04-15T16:21:10.404Z,2.95
2023-04-15T16:23:38.271Z,4.20
2023-04-15T16:26:05.355Z,2.75
2023-04-15T16:28:32.141Z,3.10
2023-04-15T16:30:59.320Z,3.63
2023-04-15T16:33:26.731Z,2.00
2023-04-15T16:35:53.554Z,3.28
2023-04-15T16:38:20.703Z,3.17
2023-04-15T16:40:47.417Z,2.28
2023-04-15T16:43:14.122Z,2.73
2023-04-15T16:45:40.949Z,1.88
2023-04-15T16:48:07.800Z,3.88
2023-04-15T16:50:36.560Z,3.10
2023-04-15T16:53:03.512Z,3.42
2023-04-15T16:55:30.520Z,2.45
2023-04-15T16:58:00.828Z,2.30
2023-04-15T17:00:30.407Z,3.40
2023-04-15T17:02:57.797Z,1.57
2023-04-15T17:05:24.793Z,2.47
2023-04-15T17:07:51.559Z,4.05
2023-04-15T17:10:18.702Z,2.17
2023-04-15T17:12:45.520Z,1.30
2023-04-15T17:15:12.309Z,2.65
2023-04-15T17:17:39.210Z,3.03
2023-04-15T17:20:06.721Z,2.22
2023-04-15T17:22:33.545Z,1.65
2023-04-15T17:25:00.418Z,2.85
2023-04-15T17:27:28.747Z,2.60
2023-04-15T17:29:56.087Z,2.95
2023-04-15T17:32:23.534Z,1.48
2023-04-15T17:34:51.434Z,2.78
2023-04-15T17:37:18.749Z,2.25
2023-04-15T17:39:45.659Z,3.73
2023-04-15T17:42:12.949Z,2.97
2023-04-15T17:44:39.981Z,2.85
2023-04-15T17:47:06.883Z,2.00
2023-04-15T17:49:34.199Z,2.13
2023-04-15T17:52:01.282Z,1.40
2023-04-15T17:54:28.445Z,1.17
2023-04-15T17:56:56.718Z,2.22
2023-04-15T17:59:23.884Z,1.33
2023-04-15T18:01:50.805Z,1.83
2023-04-15T18:04:17.655Z,2.30
2023-04-15T18:06:44.692Z,0.82
2023-04-15T18:09:11.543Z,2.27
2023-04-15T18:11:39.916Z,1.75
2023-04-15T18:14:07.223Z,1.50
2023-04-15T18:16:34.433Z,2.35
2023-04-15T18:19:01.706Z,2.85
2023-04-15T18:21:28.526Z,2.80
2023-04-15T18:23:55.305Z,2.07
2023-04-15T18:26:22.352Z,1.33
2023-04-15T18:28:49.178Z,1.88
2023-04-15T18:31:16.042Z,1.85
2023-04-15T18:33:42.735Z,1.52
2023-04-15T18:36:10.349Z,2.20
2023-04-15T18:38:37.240Z,1.40
2023-04-15T18:41:05.372Z,2.15
2023-04-15T18:43:32.441Z,1.48
2023-04-15T18:45:59.886Z,1.67
2023-04-15T18:48:27.099Z,1.55
2023-04-15T18:50:54.124Z,1.48
2023-04-15T18:53:21.337Z,1.43
2023-04-15T18:55:48.043Z,1.95
2023-04-15T18:58:14.876Z,1.70
2023-04-15T19:00:43.665Z,1.52
2023-04-15T19:03:11.281Z,2.47
2023-04-15T19:05:38.344Z,1.63
2023-04-15T19:08:05.391Z,1.92
2023-04-15T19:10:33.728Z,2.25
2023-04-15T19:13:00.488Z,1.92
2023-04-15T19:15:27.217Z,1.27
2023-04-15T19:17:54.376Z,1.38
2023-04-15T19:20:21.409Z,1.70
2023-04-15T19:22:48.528Z,2.05
2023-04-15T19:25:15.318Z,2.45
2023-04-15T19:27:42.064Z,1.73
2023-04-15T19:30:09.998Z,1.95
2023-04-15T19:32:36.845Z,1.83
2023-04-15T19:35:03.697Z,3.60
2023-04-15T19:37:30.506Z,1.33
2023-04-15T19:39:57.198Z,1.58
2023-04-15T19:42:23.920Z,2.45
2023-04-15T19:44:50.780Z,1.95
2023-04-15T19:47:17.630Z,1.40
2023-04-15T19:49:44.565Z,1.55
2023-04-15T19:52:11.398Z,2.30
2023-04-15T19:54:38.209Z,2.15
2023-04-15T19:57:05.188Z,2.53
2023-04-15T19:59:32.168Z,1.88
2023-04-15T20:01:59.107Z,1.77
2023-04-15T20:04:26.109Z,2.67
2023-04-15T20:06:52.955Z,2.05
2023-04-15T20:09:19.626Z,1.93
2023-04-15T20:12:10.040Z,2.88
2023-04-15T20:14:34.585Z,2.42
2023-04-15T20:17:01.368Z,1.57
2023-04-15T20:19:28.150Z,1.00
2023-04-15T20:21:54.995Z,1.83
2023-04-15T20:24:24.075Z,2.97
2023-04-15T20:26:51.796Z,2.42
2023-04-15T20:29:18.512Z,1.58
2023-04-15T20:31:45.426Z,2.90
2023-04-15T20:34:12.300Z,2.25
2023-04-15T20:36:39.062Z,2.08
2023-04-15T20:39:06.242Z,1.60
2023-04-15T20:41:33.125Z,2.33
2023-04-15T20:43:59.879Z,1.52
2023-04-15T20:46:27.754Z,3.00
2023-04-15T20:48:55.622Z,2.23
2023-04-15T20:51:22.391Z,2.25
2023-04-15T20:53:49.592Z,1.67
2023-04-15T20:56:16.373Z,1.83
2023-04-15T20:58:43.053Z,2.67
2023-04-15T21:01:09.925Z,1.67
2023-04-15T21:03:36.733Z,2.03
2023-04-15T21:06:03.671Z,2.22
2023-04-15T21:08:31.404Z,2.50
2023-04-15T21:10:58.262Z,1.70
2023-04-15T21:13:25.001Z,1.70
2023-04-15T21:15:54.105Z,3.58
2023-04-15T21:18:21.708Z,1.10
2023-04-15T21:20:58.698Z,1.95
2023-04-15T21:23:26.371Z,1.40
2023-04-15T21:25:53.071Z,2.10
2023-04-15T21:28:19.888Z,3.20
2023-04-15T21:30:47.098Z,1.92
2023-04-15T21:33:13.821Z,2.13
2023-04-15T21:35:40.748Z,3.10
2023-04-15T21:38:07.741Z,2.05
2023-04-15T21:40:40.084Z,2.03
2023-04-15T21:43:10.309Z,2.42
2023-04-15T21:45:40.163Z,2.13
2023-04-15T21:48:08.648Z,1.52
2023-04-15T21:50:38.751Z,1.83
2023-04-15T21:53:07.935Z,1.63
2023-04-15T21:55:35.042Z,3.20
2023-04-15T21:58:01.852Z,1.73
2023-04-15T22:00:28.709Z,3.13
2023-04-15T22:02:55.543Z,1.92
2023-04-15T22:05:22.296Z,1.60
2023-04-15T22:07:49.096Z,1.80
2023-04-15T22:10:16.162Z,2.13
2023-04-15T22:12:42.981Z,1.38
2023-04-15T22:15:09.916Z,2.10
2023-04-15T22:17:36.759Z,1.73
2023-04-15T22:20:03.894Z,2.40
2023-04-15T22:22:44.296Z,1.73
2023-04-15T22:25:12.013Z,2.17
2023-04-15T22:27:38.801Z,2.28
2023-04-15T22:30:06.335Z,1.98
2023-04-15T22:32:33.107Z,2.15
2023-04-15T22:35:00.037Z,2.20
2023-04-15T22:37:30.283Z,1.20
2023-04-15T22:39:57.343Z,1.30
2023-04-15T22:42:24.306Z,2.67
2023-04-15T22:44:51.510Z,1.50
2023-04-15T22:47:19.318Z,1.67
2023-04-15T22:49:46.146Z,3.03
2023-04-15T22:52:23.315Z,2.13
2023-04-15T22:54:54.160Z,1.67
2023-04-15T22:57:20.908Z,2.03
2023-04-15T22:59:47.572Z,1.73
2023-04-15T23:02:14.423Z,1.58
2023-04-15T23:04:41.433Z,1.33
2023-04-15T23:07:08.465Z,1.60
2023-04-15T23:09:35.379Z,1.23
2023-04-15T23:12:03.249Z,3.20
2023-04-15T23:14:31.432Z,1.95
2023-04-15T23:16:58.475Z,2.10
2023-04-15T23:19:25.384Z,1.70
2023-04-15T23:21:53.392Z,2.00
2023-04-15T23:24:20.113Z,1.65
2023-04-15T23:26:46.831Z,1.43
2023-04-15T23:29:14.080Z,1.50
2023-04-15T23:31:41.651Z,2.77
2023-04-15T23:34:08.493Z,2.88
2023-04-15T23:36:35.270Z,1.73
2023-04-15T23:39:02.118Z,1.45
2023-04-15T23:41:28.939Z,1.43
2023-04-15T23:43:55.714Z,1.77
2023-04-15T23:46:22.602Z,1.60
2023-04-15T23:48:49.655Z,1.00
2023-04-15T23:51:16.732Z,1.75
2023-04-15T23:53:43.444Z,1.35
2023-04-15T23:56:10.248Z,1.65
2023-04-15T23:58:37.002Z,4.20
